Time;durP1;ratioP1;P1;durP2;ratioP2;P2;SDS_P1;SDS_P2;PMS_P1;PMS_P2;Temp;Humidity;BMP_temperature;BMP_pressure;BME280_temperature;BME280_humidity;BME280_pressure;Samples;Min_cycle;Max_cycle;Signal;HPM_P1;HPM_P2
2022/09/04 00:01:29;;;;;;;4.68;3.20;;;;;;;;;;5051158;28;20083;-88
2022/09/04 00:04:16;;;;;;;6.30;3.67;;;;;;;;;;5050810;28;20468;-88
2022/09/04 00:06:54;;;;;;;5.65;3.20;;;;;;;;;;5047870;28;20133;-88
2022/09/04 00:09:47;;;;;;;4.00;2.88;;;;;;;;;;5026992;28;20537;-88
2022/09/04 00:12:13;;;;;;;9.57;3.35;;;;;;;;;;4991614;28;20042;-88
2022/09/04 00:14:46;;;;;;;4.50;3.30;;;;;;;;;;4995583;28;20084;-88
2022/09/04 00:17:20;;;;;;;7.05;3.58;;;;;;;;;;4995870;28;20041;-88
2022/09/04 00:19:55;;;;;;;6.18;3.63;;;;;;;;;;4995521;28;20076;-88
2022/09/04 00:22:39;;;;;;;6.25;3.40;;;;;;;;;;4988587;28;20037;-88
2022/09/04 00:25:24;;;;;;;5.88;3.78;;;;;;;;;;4985420;28;20038;-89
2022/09/04 00:27:57;;;;;;;6.18;3.38;;;;;;;;;;4980877;28;20269;-88
2022/09/04 00:30:23;;;;;;;7.57;3.20;;;;;;;;;;4995028;28;20515;-88
2022/09/04 00:33:13;;;;;;;6.38;3.67;;;;;;;;;;4995131;28;20028;-87
2022/09/04 00:35:45;;;;;;;6.55;3.08;;;;;;;;;;4994996;28;20109;-88
2022/09/04 00:38:13;;;;;;;6.32;3.92;;;;;;;;;;4963364;28;20061;-88
2022/09/04 00:41:16;;;;;;;4.78;3.13;;;;;;;;;;4983461;28;20601;-88
2022/09/04 00:44:13;;;;;;;4.53;3.15;;;;;;;;;;5009336;28;20026;-88
2022/09/04 00:47:13;;;;;;;5.53;3.00;;;;;;;;;;5025652;28;20037;-88
2022/09/04 00:49:56;;;;;;;4.75;3.33;;;;;;;;;;5031076;28;20538;-88
2022/09/04 00:52:36;;;;;;;5.97;3.30;;;;;;;;;;5030777;28;20041;-88
2022/09/04 00:55:20;;;;;;;5.68;3.35;;;;;;;;;;5026238;28;20092;-88
2022/09/04 00:57:49;;;;;;;4.60;3.28;;;;;;;;;;5010596;28;20041;-87
2022/09/04 01:00:21;;;;;;;5.55;3.22;;;;;;;;;;5028005;28;20025;-88
2022/09/04 01:03:14;;;;;;;4.90;3.40;;;;;;;;;;5029791;28;20022;-88
2022/09/04 01:06:17;;;;;;;5.40;2.85;;;;;;;;;;5027508;28;20140;-88
2022/09/04 01:09:10;;;;;;;5.78;3.22;;;;;;;;;;5014165;28;20057;-88
2022/09/04 01:11:48;;;;;;;4.13;2.87;;;;;;;;;;5016750;28;20053;-88
2022/09/04 01:14:37;;;;;;;4.93;2.85;;;;;;;;;;5014287;28;20045;-88
2022/09/04 01:17:11;;;;;;;5.63;3.35;;;;;;;;;;5013883;28;20061;-88
2022/09/04 01:19:45;;;;;;;4.47;3.13;;;;;;;;;;5024973;28;20102;-88
2022/09/04 01:22:14;;;;;;;6.90;3.30;;;;;;;;;;5020304;28;20580;-87
2022/09/04 01:24:45;;;;;;;6.15;3.72;;;;;;;;;;5015801;28;20041;-88
2022/09/04 01:27:22;;;;;;;7.20;3.60;;;;;;;;;;5029250;28;20036;-88
2022/09/04 01:30:01;;;;;;;6.00;4.05;;;;;;;;;;5027606;28;20110;-87
2022/09/04 01:32:39;;;;;;;8.50;4.75;;;;;;;;;;5018443;28;20040;-87
2022/09/04 01:35:10;;;;;;;7.60;4.10;;;;;;;;;;5031158;28;20198;-88
2022/09/04 01:37:41;;;;;;;5.93;3.88;;;;;;;;;;5029860;28;20059;-88
2022/09/04 01:40:31;;;;;;;8.13;4.68;;;;;;;;;;5009352;28;20037;-87
2022/09/04 01:43:10;;;;;;;7.22;4.22;;;;;;;;;;5011770;28;20602;-87
2022/09/04 01:46:20;;;;;;;8.27;4.22;;;;;;;;;;5017721;28;20455;-88
2022/09/04 01:49:09;;;;;;;7.63;4.35;;;;;;;;;;4948744;28;20039;-88
2022/09/04 01:52:06;;;;;;;9.10;4.57;;;;;;;;;;5016071;28;20041;-88
2022/09/04 01:54:57;;;;;;;7.68;4.15;;;;;;;;;;5032569;28;20089;-87
2022/09/04 01:57:28;;;;;;;6.97;4.40;;;;;;;;;;5049734;28;20028;-88
2022/09/04 02:00:03;;;;;;;6.90;4.28;;;;;;;;;;5042585;28;20060;-88
2022/09/04 02:02:54;;;;;;;6.07;4.20;;;;;;;;;;5031155;28;20529;-87
2022/09/04 02:05:29;;;;;;;6.57;3.92;;;;;;;;;;5030247;28;20041;-87
2022/09/04 02:07:58;;;;;;;8.02;3.75;;;;;;;;;;5030767;28;20107;-87
2022/09/04 02:10:32;;;;;;;7.78;4.13;;;;;;;;;;5032882;28;20047;-88
2022/09/04 02:13:13;;;;;;;6.72;4.10;;;;;;;;;;5033074;28;20087;-87
2022/09/04 02:15:57;;;;;;;5.75;3.95;;;;;;;;;;5030814;28;20029;-88
2022/09/04 02:18:44;;;;;;;;;;;;;;;;;;5034000;28;20032;-88
2022/09/04 02:21:17;;;;;;;7.53;3.85;;;;;;;;;;5050896;28;19930;-88
2022/09/04 02:23:42;;;;;;;6.55;4.28;;;;;;;;;;5016317;28;20691;-88
2022/09/04 02:26:21;;;;;;;8.70;3.97;;;;;;;;;;5025799;28;20033;-88
2022/09/04 02:28:57;;;;;;;8.00;4.38;;;;;;;;;;5027450;28;20044;-88
2022/09/04 02:31:59;;;;;;;7.53;4.18;;;;;;;;;;5032953;28;20036;-88
2022/09/04 02:34:43;;;;;;;6.50;3.63;;;;;;;;;;5045630;28;20044;-87
2022/09/04 02:37:23;;;;;;;;;;;;;;;;;;5026269;28;20055;-88
2022/09/04 02:40:13;;;;;;;7.68;4.25;;;;;;;;;;5029582;28;19912;-88
2022/09/04 02:43:03;;;;;;;6.70;3.80;;;;;;;;;;5032522;28;20090;-87
2022/09/04 02:45:39;;;;;;;8.23;4.50;;;;;;;;;;5032296;28;20029;-88
2022/09/04 02:48:14;;;;;;;9.02;4.35;;;;;;;;;;5015341;28;20120;-88
2022/09/04 02:50:57;;;;;;;6.93;3.75;;;;;;;;;;5033090;28;20116;-88
2022/09/04 02:53:46;;;;;;;8.07;4.40;;;;;;;;;;5048128;28;20520;-88
2022/09/04 02:56:38;;;;;;;6.45;3.88;;;;;;;;;;5054104;28;20044;-89
2022/09/04 02:59:30;;;;;;;7.32;4.55;;;;;;;;;;5047740;28;20037;-89
2022/09/04 03:01:58;;;;;;;7.28;3.88;;;;;;;;;;5049869;28;20034;-88
2022/09/04 03:04:34;;;;;;;5.97;3.72;;;;;;;;;;5033737;28;20038;-89
2022/09/04 03:07:28;;;;;;;5.55;3.88;;;;;;;;;;5032775;28;20034;-88
2022/09/04 03:09:59;;;;;;;6.97;4.07;;;;;;;;;;5049641;28;20042;-89
2022/09/04 03:12:36;;;;;;;6.57;4.22;;;;;;;;;;5033090;28;20049;-89
2022/09/04 03:15:13;;;;;;;4.82;3.15;;;;;;;;;;5046860;28;20786;-88
2022/09/04 03:17:44;;;;;;;7.70;3.75;;;;;;;;;;5053839;28;20134;-88
2022/09/04 03:20:13;;;;;;;6.70;4.10;;;;;;;;;;5053391;28;20399;-89
2022/09/04 03:22:45;;;;;;;6.13;3.85;;;;;;;;;;5052929;28;20108;-89
2022/09/04 03:25:41;;;;;;;6.83;3.87;;;;;;;;;;5053306;28;20087;-88
2022/09/04 03:28:34;;;;;;;7.65;4.10;;;;;;;;;;5038469;28;20044;-89
2022/09/04 03:31:20;;;;;;;7.13;3.85;;;;;;;;;;5036654;28;20049;-89
2022/09/04 03:34:00;;;;;;;6.40;3.72;;;;;;;;;;5043584;28;20040;-89
2022/09/04 03:37:02;;;;;;;7.05;3.83;;;;;;;;;;5055029;28;20040;-89
2022/09/04 03:39:48;;;;;;;6.20;3.72;;;;;;;;;;5032373;28;20032;-89
2022/09/04 03:42:38;;;;;;;5.95;3.50;;;;;;;;;;5053046;28;20025;-89
2022/09/04 03:45:35;;;;;;;5.43;3.17;;;;;;;;;;5054929;28;20027;-89
2022/09/04 03:48:26;;;;;;;8.07;4.00;;;;;;;;;;5042417;28;20077;-89
2022/09/04 03:50:55;;;;;;;6.43;4.10;;;;;;;;;;5053009;28;20037;-89
2022/09/04 03:53:42;;;;;;;6.25;4.00;;;;;;;;;;5052146;28;20051;-88
2022/09/04 03:56:41;;;;;;;6.63;3.90;;;;;;;;;;5052737;28;20587;-88
2022/09/04 03:59:10;;;;;;;11.20;4.40;;;;;;;;;;5052760;28;20037;-88
2022/09/04 04:02:00;;;;;;;7.85;4.05;;;;;;;;;;5052075;28;20033;-88
2022/09/04 04:04:58;;;;;;;9.15;4.13;;;;;;;;;;5050654;28;20043;-89
2022/09/04 04:07:48;;;;;;;8.55;4.35;;;;;;;;;;5032638;28;20037;-88
2022/09/04 04:10:32;;;;;;;7.50;3.85;;;;;;;;;;5031301;28;20133;-88
2022/09/04 04:13:00;;;;;;;;;;;;;;;;;;5033060;28;20064;-89
2022/09/04 04:15:59;;;;;;;8.77;4.20;;;;;;;;;;5050148;28;19913;-89
2022/09/04 04:18:54;;;;;;;5.90;3.65;;;;;;;;;;5052239;28;20040;-89
2022/09/04 04:21:26;;;;;;;8.18;3.85;;;;;;;;;;5052170;28;20078;-89
2022/09/04 04:24:16;;;;;;;9.55;4.65;;;;;;;;;;5045649;28;20516;-88
2022/09/04 04:27:08;;;;;;;6.85;3.90;;;;;;;;;;5052417;28;20045;-88
2022/09/04 04:29:50;;;;;;;7.10;3.80;;;;;;;;;;5052390;28;20060;-89
2022/09/04 04:32:53;;;;;;;7.05;4.30;;;;;;;;;;5052097;28;20041;-89
2022/09/04 04:35:28;;;;;;;6.28;3.50;;;;;;;;;;5051754;28;20040;-89
2022/09/04 04:38:31;;;;;;;9.20;4.25;;;;;;;;;;5041909;28;20048;-88
2022/09/04 04:41:15;;;;;;;8.18;4.07;;;;;;;;;;5052305;28;20033;-89
2022/09/04 04:44:03;;;;;;;6.60;3.50;;;;;;;;;;5038038;28;20064;-88
2022/09/04 04:46:48;;;;;;;10.25;4.18;;;;;;;;;;5051968;28;20033;-89
2022/09/04 04:49:32;;;;;;;8.70;4.10;;;;;;;;;;5042599;28;20045;-89
2022/09/04 04:52:18;;;;;;;6.13;3.38;;;;;;;;;;5052018;28;20061;-89
2022/09/04 04:54:53;;;;;;;7.18;3.85;;;;;;;;;;5051618;28;20055;-89
2022/09/04 04:57:42;;;;;;;6.97;3.60;;;;;;;;;;5051909;28;20029;-89
2022/09/04 05:00:20;;;;;;;5.40;3.33;;;;;;;;;;5050453;28;20036;-90
2022/09/04 05:03:00;;;;;;;7.93;3.83;;;;;;;;;;5051798;28;20028;-89
2022/09/04 05:05:54;;;;;;;5.88;3.22;;;;;;;;;;5052094;28;20086;-90
2022/09/04 05:08:22;;;;;;;;;;;;;;;;;;5050752;28;20462;-88
2022/09/04 05:10:55;;;;;;;7.70;3.83;;;;;;;;;;5019636;28;19921;-89
2022/09/04 05:13:56;;;;;;;9.18;4.00;;;;;;;;;;5015122;28;20503;-88
2022/09/04 05:16:34;;;;;;;7.90;4.25;;;;;;;;;;4997955;28;20046;-89
2022/09/04 05:19:14;;;;;;;9.57;3.90;;;;;;;;;;5002783;28;20116;-88
2022/09/04 05:22:08;;;;;;;7.00;3.92;;;;;;;;;;5027352;28;20573;-88
2022/09/04 05:25:10;;;;;;;7.97;3.90;;;;;;;;;;5031311;28;20650;-88
2022/09/04 05:28:00;;;;;;;6.25;3.70;;;;;;;;;;5010476;28;20041;-89
2022/09/04 05:30:50;;;;;;;5.43;3.30;;;;;;;;;;5000309;28;20496;-88
2022/09/04 05:33:30;;;;;;;7.15;3.30;;;;;;;;;;5011261;28;20029;-88
2022/09/04 05:36:01;;;;;;;7.85;3.90;;;;;;;;;;4995175;28;20565;-88
2022/09/04 05:38:53;;;;;;;6.00;3.45;;;;;;;;;;4994004;28;20034;-88
2022/09/04 05:41:49;;;;;;;8.45;3.80;;;;;;;;;;4987652;28;20056;-89
2022/09/04 05:44:34;;;;;;;6.05;2.97;;;;;;;;;;4989015;28;20034;-87
2022/09/04 05:47:28;;;;;;;7.20;3.72;;;;;;;;;;4992174;28;20034;-88
2022/09/04 05:50:05;;;;;;;9.48;4.00;;;;;;;;;;5022265;28;20121;-88
2022/09/04 05:52:47;;;;;;;9.57;4.03;;;;;;;;;;5011549;28;20048;-89
2022/09/04 05:55:40;;;;;;;7.03;3.85;;;;;;;;;;5023241;28;20124;-87
2022/09/04 05:58:26;;;;;;;15.33;5.10;;;;;;;;;;5011795;28;20483;-87
2022/09/04 06:01:06;;;;;;;6.93;4.10;;;;;;;;;;5027071;28;20307;-87
2022/09/04 06:04:06;;;;;;;9.98;4.35;;;;;;;;;;5010529;28;20029;-87
2022/09/04 06:06:52;;;;;;;6.47;3.63;;;;;;;;;;5010213;28;20041;-87
2022/09/04 06:09:38;;;;;;;9.25;4.10;;;;;;;;;;5007875;28;20072;-87
2022/09/04 06:12:36;;;;;;;8.25;4.50;;;;;;;;;;5022603;28;20099;-87
2022/09/04 06:15:21;;;;;;;6.95;4.10;;;;;;;;;;5018063;28;20057;-87
2022/09/04 06:17:58;;;;;;;8.85;4.80;;;;;;;;;;5027474;28;20079;-87
2022/09/04 06:20:53;;;;;;;10.93;4.78;;;;;;;;;;5025174;28;20041;-85
2022/09/04 06:23:49;;;;;;;11.30;4.88;;;;;;;;;;5016681;28;20033;-84
2022/09/04 06:26:33;;;;;;;8.10;4.72;;;;;;;;;;5018975;28;20085;-86
2022/09/04 06:29:30;;;;;;;10.02;5.32;;;;;;;;;;5008102;28;20048;-86
2022/09/04 06:32:17;;;;;;;11.68;5.72;;;;;;;;;;5029404;28;20036;-86
2022/09/04 06:34:57;;;;;;;14.45;5.55;;;;;;;;;;5039220;28;20037;-85
2022/09/04 06:37:47;;;;;;;9.20;4.97;;;;;;;;;;5021325;28;20083;-86
2022/09/04 06:40:33;;;;;;;12.35;5.20;;;;;;;;;;5023481;28;20045;-87
2022/09/04 06:43:11;;;;;;;9.88;4.22;;;;;;;;;;5011501;28;20061;-85
2022/09/04 06:45:43;;;;;;;8.60;4.80;;;;;;;;;;5013715;28;20124;-86
2022/09/04 06:48:31;;;;;;;14.38;4.97;;;;;;;;;;5014098;28;20026;-84
2022/09/04 06:51:22;;;;;;;7.80;4.35;;;;;;;;;;5006802;28;20034;-86
2022/09/04 06:54:00;;;;;;;8.07;4.30;;;;;;;;;;5018247;28;20438;-84
2022/09/04 06:56:41;;;;;;;10.63;4.78;;;;;;;;;;5021856;28;20179;-86
2022/09/04 06:59:20;;;;;;;10.00;4.95;;;;;;;;;;5021412;28;20033;-86
2022/09/04 07:02:14;;;;;;;13.57;6.50;;;;;;;;;;5022128;28;20080;-84
2022/09/04 07:04:55;;;;;;;;;;;;;;;;;;5019608;28;20045;-85
2022/09/04 07:07:55;;;;;;;11.48;5.53;;;;;;;;;;5017368;28;20004;-84
2022/09/04 07:10:45;;;;;;;12.55;6.50;;;;;;;;;;5017820;28;20048;-85
2022/09/04 07:13:26;;;;;;;16.55;7.45;;;;;;;;;;5021009;28;20120;-85
2022/09/04 07:16:29;;;;;;;16.75;8.30;;;;;;;;;;5019720;28;20045;-85
2022/09/04 07:19:06;;;;;;;21.38;9.15;;;;;;;;;;5021375;28;20758;-86
2022/09/04 07:21:51;;;;;;;17.60;8.27;;;;;;;;;;5024697;28;20043;-86
2022/09/04 07:24:28;;;;;;;15.98;7.45;;;;;;;;;;5005325;28;20052;-86
2022/09/04 07:27:14;;;;;;;11.50;5.68;;;;;;;;;;5019095;28;20037;-86
2022/09/04 07:29:57;;;;;;;7.93;3.80;;;;;;;;;;5016502;28;20115;-85
2022/09/04 07:32:32;;;;;;;12.00;3.88;;;;;;;;;;5025987;28;20033;-86
2022/09/04 07:35:07;;;;;;;4.35;3.10;;;;;;;;;;5018027;28;20038;-85
2022/09/04 07:37:38;;;;;;;8.43;3.15;;;;;;;;;;5012495;28;20041;-86
2022/09/04 07:40:08;;;;;;;4.78;3.20;;;;;;;;;;5021148;28;20121;-86
2022/09/04 07:42:38;;;;;;;5.10;3.03;;;;;;;;;;5017029;28;20034;-84
2022/09/04 07:45:21;;;;;;;6.93;3.00;;;;;;;;;;5020226;28;20021;-85
2022/09/04 07:48:10;;;;;;;;;;;;;;;;;;5035172;28;20823;-86
2022/09/04 07:50:46;;;;;;;4.82;2.60;;;;;;;;;;4991359;28;20287;-86
2022/09/04 07:53:20;;;;;;;4.85;2.58;;;;;;;;;;5041651;28;20045;-90
2022/09/04 07:55:50;;;;;;;3.03;2.30;;;;;;;;;;5029278;28;20581;-87
2022/09/04 07:58:21;;;;;;;3.80;2.42;;;;;;;;;;5031620;28;20120;-87
2022/09/04 08:01:00;;;;;;;3.95;2.35;;;;;;;;;;5032209;28;20041;-90
2022/09/04 08:03:46;;;;;;;4.05;2.35;;;;;;;;;;5031565;28;20033;-90
2022/09/04 08:06:30;;;;;;;2.58;2.13;;;;;;;;;;5029397;28;20490;-88
2022/09/04 08:08:55;;;;;;;5.47;2.47;;;;;;;;;;5032248;28;20057;-90
2022/09/04 08:11:35;;;;;;;4.65;2.55;;;;;;;;;;5024584;28;20677;-90
2022/09/04 08:14:48;;;;;;;5.50;2.45;;;;;;;;;;5028642;28;20064;-90
2022/09/04 08:17:25;;;;;;;3.38;2.22;;;;;;;;;;4962061;28;20050;-89
2022/09/04 08:20:18;;;;;;;3.60;2.20;;;;;;;;;;5035632;28;20044;-90
2022/09/04 08:23:03;;;;;;;3.53;2.17;;;;;;;;;;4999265;28;20033;-89
2022/09/04 08:25:42;;;;;;;3.28;2.08;;;;;;;;;;5025543;28;20037;-91
2022/09/04 08:28:20;;;;;;;3.90;2.42;;;;;;;;;;5026703;28;20458;-89
2022/09/04 08:31:11;;;;;;;4.20;2.67;;;;;;;;;;5028606;28;20049;-88
2022/09/04 08:33:49;;;;;;;3.63;2.47;;;;;;;;;;5024101;28;20076;-92
2022/09/04 08:36:30;;;;;;;3.15;2.22;;;;;;;;;;5020493;28;20124;-91
2022/09/04 08:39:05;;;;;;;4.10;2.50;;;;;;;;;;5032436;28;20517;-89
2022/09/04 08:41:36;;;;;;;4.13;2.70;;;;;;;;;;5027423;28;20060;-89
2022/09/04 08:44:17;;;;;;;6.40;2.80;;;;;;;;;;5025746;28;20038;-91
2022/09/04 08:46:48;;;;;;;4.82;2.53;;;;;;;;;;5040760;28;20037;-88
2022/09/04 08:49:13;;;;;;;5.57;3.00;;;;;;;;;;5022423;28;20044;-88
2022/09/04 08:52:11;;;;;;;3.70;2.53;;;;;;;;;;5028537;28;20120;-90
2022/09/04 08:54:56;;;;;;;3.15;2.30;;;;;;;;;;5037884;28;20041;-90
2022/09/04 08:57:34;;;;;;;5.85;2.75;;;;;;;;;;5027698;28;20193;-89
2022/09/04 09:00:18;;;;;;;6.13;2.58;;;;;;;;;;5014506;28;20037;-89
2022/09/04 09:02:56;;;;;;;4.28;2.42;;;;;;;;;;5010952;28;20519;-88
2022/09/04 09:05:27;;;;;;;4.82;2.47;;;;;;;;;;5012858;28;20048;-89
2022/09/04 09:08:01;;;;;;;7.55;2.60;;;;;;;;;;5022377;28;20129;-89
2022/09/04 09:11:01;;;;;;;5.03;2.58;;;;;;;;;;5037011;28;20045;-87
2022/09/04 09:13:46;;;;;;;7.82;2.70;;;;;;;;;;5033956;28;20127;-89
2022/09/04 09:16:51;;;;;;;4.45;2.08;;;;;;;;;;5020962;28;20102;-89
2022/09/04 09:19:36;;;;;;;6.63;2.63;;;;;;;;;;5034562;28;20037;-89
2022/09/04 09:22:09;;;;;;;3.70;2.30;;;;;;;;;;5025721;28;20037;-87
2022/09/04 09:24:56;;;;;;;6.15;2.58;;;;;;;;;;5021812;28;20047;-90
2022/09/04 09:27:59;;;;;;;3.95;2.30;;;;;;;;;;5039317;28;20067;-89
2022/09/04 09:30:57;;;;;;;3.97;2.35;;;;;;;;;;5021495;28;20540;-85
2022/09/04 09:33:25;;;;;;;8.15;2.50;;;;;;;;;;5019135;28;20052;-88
2022/09/04 09:36:16;;;;;;;3.15;2.00;;;;;;;;;;5046786;28;20036;-88
2022/09/04 09:38:52;;;;;;;5.70;2.10;;;;;;;;;;5024017;28;20517;-86
2022/09/04 09:41:30;;;;;;;2.80;2.10;;;;;;;;;;5028236;28;20116;-89
2022/09/04 09:44:11;;;;;;;8.32;2.40;;;;;;;;;;5043389;28;20048;-89
2022/09/04 09:46:44;;;;;;;2.88;1.98;;;;;;;;;;5025471;28;20056;-89
2022/09/04 09:49:46;;;;;;;4.78;2.58;;;;;;;;;;5028089;28;20045;-90
2022/09/04 09:52:44;;;;;;;8.27;2.47;;;;;;;;;;5024294;28;20047;-88
2022/09/04 09:55:31;;;;;;;2.85;1.70;;;;;;;;;;5020057;28;20042;-88
2022/09/04 09:58:12;;;;;;;3.33;1.60;;;;;;;;;;5002125;28;20034;-88
2022/09/04 10:01:05;;;;;;;2.80;1.70;;;;;;;;;;5021483;28;20503;-90
2022/09/04 10:04:11;;;;;;;4.13;1.92;;;;;;;;;;5024238;28;20132;-88
2022/09/04 10:07:09;;;;;;;2.50;1.42;;;;;;;;;;5045314;28;20106;-91
2022/09/04 10:09:46;;;;;;;2.97;1.65;;;;;;;;;;5046829;28;20051;-88
2022/09/04 10:12:31;;;;;;;2.50;1.60;;;;;;;;;;5026114;28;20115;-88
2022/09/04 10:15:10;;;;;;;7.10;1.70;;;;;;;;;;5038149;28;20029;-88
2022/09/04 10:18:14;;;;;;;2.47;1.40;;;;;;;;;;5021585;28;20095;-88
2022/09/04 10:21:09;;;;;;;2.10;1.70;;;;;;;;;;4998293;28;20045;-86
2022/09/04 10:24:09;;;;;;;4.93;2.13;;;;;;;;;;5048237;28;20044;-87
2022/09/04 10:26:43;;;;;;;2.65;1.60;;;;;;;;;;5041130;28;20053;-90
2022/09/04 10:29:49;;;;;;;3.35;1.75;;;;;;;;;;5025059;28;20045;-88
2022/09/04 10:32:31;;;;;;;5.00;1.60;;;;;;;;;;5044787;28;20041;-86
2022/09/04 10:35:06;;;;;;;4.07;1.67;;;;;;;;;;5024433;28;21190;-88
2022/09/04 10:37:52;;;;;;;3.17;1.42;;;;;;;;;;5015463;28;20091;-87
2022/09/04 10:40:37;;;;;;;2.08;1.50;;;;;;;;;;5016899;28;20180;-87
2022/09/04 10:43:19;;;;;;;1.95;1.50;;;;;;;;;;5042777;28;20049;-89
2022/09/04 10:45:50;;;;;;;2.75;1.30;;;;;;;;;;5025224;28;20045;-86
2022/09/04 10:48:18;;;;;;;2.20;1.77;;;;;;;;;;5015200;28;20025;-85
2022/09/04 10:50:56;;;;;;;2.88;1.60;;;;;;;;;;5045577;28;20372;-87
2022/09/04 10:53:43;;;;;;;2.60;1.42;;;;;;;;;;5023259;28;20049;-86
2022/09/04 10:56:43;;;;;;;2.70;1.60;;;;;;;;;;5031554;28;20075;-88
2022/09/04 10:59:33;;;;;;;2.40;1.60;;;;;;;;;;4968425;28;20042;-89
2022/09/04 11:02:22;;;;;;;2.78;1.48;;;;;;;;;;5019036;28;20129;-87
2022/09/04 11:05:16;;;;;;;1.98;1.65;;;;;;;;;;5035126;28;20037;-90
2022/09/04 11:08:05;;;;;;;5.07;1.85;;;;;;;;;;5044235;28;20029;-88
2022/09/04 11:10:56;;;;;;;3.83;1.75;;;;;;;;;;5041953;28;20059;-89
2022/09/04 11:13:22;;;;;;;1.85;1.63;;;;;;;;;;5039645;28;20059;-87
2022/09/04 11:15:56;;;;;;;4.10;1.58;;;;;;;;;;5029168;28;20116;-90
2022/09/04 11:19:01;;;;;;;5.63;1.83;;;;;;;;;;5039731;28;20055;-88
2022/09/04 11:22:01;;;;;;;6.38;1.92;;;;;;;;;;5037419;28;20072;-88
2022/09/04 11:24:53;;;;;;;3.50;1.70;;;;;;;;;;5012413;28;20040;-85
2022/09/04 11:27:47;;;;;;;6.07;1.92;;;;;;;;;;5047454;28;20021;-85
2022/09/04 11:31:02;;;;;;;6.82;1.65;;;;;;;;;;5039342;28;20022;-88
2022/09/04 11:34:00;;;;;;;4.70;1.90;;;;;;;;;;5023908;28;20096;-87
2022/09/04 11:36:40;;;;;;;2.15;1.50;;;;;;;;;;5036056;28;20587;-89
2022/09/04 11:39:20;;;;;;;3.85;1.98;;;;;;;;;;5036082;28;20036;-86
2022/09/04 11:42:19;;;;;;;3.38;1.77;;;;;;;;;;5005231;28;20076;-91
2022/09/04 11:44:50;;;;;;;4.88;1.90;;;;;;;;;;5020161;28;20041;-89
2022/09/04 11:47:28;;;;;;;4.22;1.65;;;;;;;;;;5042705;28;20095;-90
2022/09/04 11:50:04;;;;;;;2.92;1.40;;;;;;;;;;5043980;28;20038;-88
2022/09/04 11:53:10;;;;;;;3.83;1.70;;;;;;;;;;5030268;28;20124;-88
2022/09/04 11:56:06;;;;;;;4.72;1.70;;;;;;;;;;5045806;28;20098;-87
2022/09/04 11:58:35;;;;;;;2.05;1.58;;;;;;;;;;5026634;28;20041;-87
2022/09/04 12:01:25;;;;;;;3.33;1.80;;;;;;;;;;5030123;28;20059;-89
2022/09/04 12:04:24;;;;;;;2.78;1.60;;;;;;;;;;5016592;28;20037;-85
2022/09/04 12:07:11;;;;;;;4.25;1.80;;;;;;;;;;5012860;28;20080;-87
2022/09/04 12:10:00;;;;;;;2.75;1.70;;;;;;;;;;5019780;28;20030;-88
2022/09/04 12:12:50;;;;;;;2.65;1.70;;;;;;;;;;5034546;28;20116;-87
2022/09/04 12:15:31;;;;;;;4.07;1.90;;;;;;;;;;5026537;28;20026;-90
2022/09/04 12:18:19;;;;;;;2.20;1.80;;;;;;;;;;5018913;28;20107;-90
2022/09/04 12:20:48;;;;;;;7.45;2.20;;;;;;;;;;5000334;28;20046;-88
2022/09/04 12:23:13;;;;;;;2.35;1.70;;;;;;;;;;4969064;28;20045;-90
2022/09/04 12:26:00;;;;;;;2.22;2.00;;;;;;;;;;5000796;28;20091;-89
2022/09/04 12:28:59;;;;;;;4.15;2.00;;;;;;;;;;4993675;28;20062;-87
2022/09/04 12:31:37;;;;;;;2.05;1.70;;;;;;;;;;5030449;28;20033;-88
2022/09/04 12:34:30;;;;;;;2.13;1.75;;;;;;;;;;5001911;28;20643;-85
2022/09/04 12:37:12;;;;;;;1.88;1.60;;;;;;;;;;5030798;28;20545;-87
2022/09/04 12:40:17;;;;;;;2.97;1.70;;;;;;;;;;4990995;28;20034;-90
2022/09/04 12:43:01;;;;;;;5.13;1.98;;;;;;;;;;4996190;28;20037;-90
2022/09/04 12:45:45;;;;;;;4.35;1.80;;;;;;;;;;4998696;28;20033;-90
2022/09/04 12:48:19;;;;;;;5.88;2.13;;;;;;;;;;5034358;28;20415;-87
2022/09/04 12:51:10;;;;;;;3.15;1.80;;;;;;;;;;5009084;28;20033;-89
2022/09/04 12:54:02;;;;;;;4.40;1.80;;;;;;;;;;5003769;28;20093;-86
2022/09/04 12:56:39;;;;;;;3.78;1.90;;;;;;;;;;5000783;28;20034;-88
2022/09/04 12:59:43;;;;;;;2.30;1.90;;;;;;;;;;4986843;28;20129;-87
2022/09/04 13:02:16;;;;;;;2.53;2.00;;;;;;;;;;4979150;28;20522;-88
2022/09/04 13:04:54;;;;;;;3.55;2.35;;;;;;;;;;4992436;28;20037;-88
2022/09/04 13:07:41;;;;;;;2.72;2.20;;;;;;;;;;4983432;28;20043;-90
2022/09/04 13:10:31;;;;;;;2.65;1.88;;;;;;;;;;5010763;28;20037;-88
2022/09/04 13:13:24;;;;;;;4.38;2.15;;;;;;;;;;5004070;28;20743;-88
2022/09/04 13:16:15;;;;;;;2.28;1.58;;;;;;;;;;4979701;28;20079;-88
2022/09/04 13:18:57;;;;;;;3.40;2.00;;;;;;;;;;5013161;28;20273;-88
2022/09/04 13:21:50;;;;;;;3.75;1.88;;;;;;;;;;5016869;28;20049;-89
2022/09/04 13:24:26;;;;;;;4.47;2.00;;;;;;;;;;5000778;28;20025;-88
2022/09/04 13:27:01;;;;;;;3.83;1.90;;;;;;;;;;5014909;28;20065;-88
2022/09/04 13:29:34;;;;;;;3.40;1.90;;;;;;;;;;5032377;28;20041;-88
2022/09/04 13:32:27;;;;;;;2.95;1.90;;;;;;;;;;5028908;28;20033;-88
2022/09/04 13:35:16;;;;;;;3.70;1.73;;;;;;;;;;5032340;28;20049;-87
2022/09/04 13:37:53;;;;;;;2.17;1.70;;;;;;;;;;5035437;28;20047;-86
2022/09/04 13:40:21;;;;;;;4.38;1.90;;;;;;;;;;5031490;28;20034;-90
2022/09/04 13:43:05;;;;;;;3.33;1.80;;;;;;;;;;5039797;28;20448;-89
2022/09/04 13:45:46;;;;;;;3.58;1.80;;;;;;;;;;5033613;28;20559;-89
2022/09/04 13:48:21;;;;;;;2.58;1.75;;;;;;;;;;5054830;28;20029;-89
2022/09/04 13:50:56;;;;;;;2.78;1.80;;;;;;;;;;5045655;28;20129;-90
2022/09/04 13:53:47;;;;;;;2.67;1.85;;;;;;;;;;5044210;28;20044;-90
2022/09/04 13:56:18;;;;;;;2.10;1.58;;;;;;;;;;5062397;28;20045;-88
2022/09/04 13:58:50;;;;;;;2.30;1.67;;;;;;;;;;5059167;28;20056;-89
2022/09/04 14:01:26;;;;;;;3.03;1.70;;;;;;;;;;5056341;28;20036;-88
2022/09/04 14:04:00;;;;;;;2.25;1.70;;;;;;;;;;5080348;28;20071;-89
2022/09/04 14:06:28;;;;;;;3.90;1.88;;;;;;;;;;5059577;28;20040;-88
2022/09/04 14:08:55;;;;;;;3.35;2.22;;;;;;;;;;5042256;28;20049;-90
2022/09/04 14:11:40;;;;;;;3.53;1.88;;;;;;;;;;5039989;28;20541;-89
2022/09/04 14:14:26;;;;;;;2.55;1.90;;;;;;;;;;5040934;28;20102;-87
2022/09/04 14:16:54;;;;;;;3.53;2.10;;;;;;;;;;5051982;28;20040;-90
2022/09/04 14:19:31;;;;;;;3.13;1.70;;;;;;;;;;5065431;28;20029;-87
2022/09/04 14:22:05;;;;;;;3.15;1.75;;;;;;;;;;5062210;28;20059;-86
2022/09/04 14:24:50;;;;;;;2.17;1.35;;;;;;;;;;5044209;28;20064;-87
2022/09/04 14:27:46;;;;;;;2.60;1.50;;;;;;;;;;5048016;28;20052;-90
2022/09/04 14:30:16;;;;;;;3.45;1.90;;;;;;;;;;5030520;28;20051;-89
2022/09/04 14:33:07;;;;;;;2.30;1.60;;;;;;;;;;5060708;28;20037;-88
2022/09/04 14:35:57;;;;;;;2.95;1.80;;;;;;;;;;5044494;28;20051;-89
2022/09/04 14:38:41;;;;;;;3.15;1.77;;;;;;;;;;5055717;28;20036;-88
2022/09/04 14:41:41;;;;;;;1.98;1.48;;;;;;;;;;5036635;28;20489;-88
2022/09/04 14:44:16;;;;;;;2.92;1.60;;;;;;;;;;5058172;28;20078;-89
2022/09/04 14:47:15;;;;;;;2.47;1.60;;;;;;;;;;5059172;28;20048;-88
2022/09/04 14:49:48;;;;;;;2.65;1.70;;;;;;;;;;5045171;28;20169;-88
2022/09/04 14:52:18;;;;;;;3.40;1.98;;;;;;;;;;5052901;28;20128;-89
2022/09/04 14:54:45;;;;;;;4.63;2.30;;;;;;;;;;5066221;28;20060;-89
2022/09/04 14:57:34;;;;;;;2.90;1.80;;;;;;;;;;5052508;28;20025;-87
2022/09/04 15:00:14;;;;;;;3.90;1.80;;;;;;;;;;5030675;28;20175;-88
2022/09/04 15:02:49;;;;;;;2.40;1.80;;;;;;;;;;5056015;28;20043;-89
2022/09/04 15:05:27;;;;;;;2.55;1.70;;;;;;;;;;5041670;28;20037;-88
2022/09/04 15:07:58;;;;;;;2.75;1.85;;;;;;;;;;5046594;28;20040;-88
2022/09/04 15:10:48;;;;;;;1.70;1.50;;;;;;;;;;5054071;28;20044;-90
2022/09/04 15:13:26;;;;;;;3.50;1.75;;;;;;;;;;5042444;28;20525;-89
2022/09/04 15:15:57;;;;;;;2.53;1.75;;;;;;;;;;5044089;28;20033;-88
2022/09/04 15:18:36;;;;;;;2.47;1.58;;;;;;;;;;5032178;28;20052;-88
2022/09/04 15:21:13;;;;;;;2.40;1.50;;;;;;;;;;5030162;28;20017;-90
2022/09/04 15:23:59;;;;;;;3.60;1.70;;;;;;;;;;5020514;28;20124;-88
2022/09/04 15:26:36;;;;;;;3.58;1.77;;;;;;;;;;5023455;28;20040;-88
2022/09/04 15:29:11;;;;;;;2.03;1.40;;;;;;;;;;5031937;28;20029;-87
2022/09/04 15:31:40;;;;;;;1.95;1.70;;;;;;;;;;5033342;28;20066;-86
2022/09/04 15:34:19;;;;;;;6.35;1.58;;;;;;;;;;5034029;28;20060;-88
2022/09/04 15:36:44;;;;;;;1.80;1.58;;;;;;;;;;5062571;28;20037;-86
2022/09/04 15:39:20;;;;;;;2.30;1.60;;;;;;;;;;5067767;28;20079;-86
2022/09/04 15:41:48;;;;;;;2.03;1.48;;;;;;;;;;5030509;28;20052;-86
2022/09/04 15:44:39;;;;;;;3.50;2.03;;;;;;;;;;5030933;28;20083;-86
2022/09/04 15:47:56;;;;;;;4.10;1.50;;;;;;;;;;5028514;28;20162;-87
2022/09/04 15:50:26;;;;;;;3.80;1.40;;;;;;;;;;4990614;28;20033;-87
2022/09/04 15:53:09;;;;;;;2.00;1.58;;;;;;;;;;5039533;28;20044;-86
2022/09/04 15:55:37;;;;;;;;;;;;;;;;;;5031386;28;20091;-87
2022/09/04 15:58:22;;;;;;;4.72;1.73;;;;;;;;;;5029104;28;19960;-87
2022/09/04 16:01:08;;;;;;;2.22;1.55;;;;;;;;;;5043740;28;20041;-86
2022/09/04 16:03:53;;;;;;;2.17;1.40;;;;;;;;;;5032247;28;20029;-88
2022/09/04 16:06:41;;;;;;;2.28;1.60;;;;;;;;;;5031563;28;20017;-86
2022/09/04 16:09:17;;;;;;;1.85;1.60;;;;;;;;;;5016205;28;20037;-87
2022/09/04 16:11:58;;;;;;;2.10;1.50;;;;;;;;;;5006731;28;20665;-88
2022/09/04 16:14:47;;;;;;;2.25;1.40;;;;;;;;;;5029195;28;20514;-89
2022/09/04 16:17:24;;;;;;;2.92;1.40;;;;;;;;;;5030924;28;20119;-84
2022/09/04 16:20:13;;;;;;;2.38;1.60;;;;;;;;;;5046390;28;20051;-87